createdAt,value
2017-10-31T00:02:23.429Z,6.20
2017-10-31T00:04:52.290Z,6.53
2017-10-31T00:07:21.178Z,5.40
2017-10-31T00:09:50.046Z,6.20
2017-10-31T00:12:18.902Z,5.83
2017-10-31T00:14:47.987Z,6.50
2017-10-31T00:17:16.830Z,5.50
2017-10-31T00:19:45.698Z,6.47
2017-10-31T00:22:14.635Z,5.00
2017-10-31T00:24:43.484Z,5.40
2017-10-31T00:27:12.361Z,6.00
2017-10-31T00:29:41.209Z,6.10
2017-10-31T00:32:10.102Z,6.53
2017-10-31T00:34:38.943Z,5.50
2017-10-31T00:37:07.828Z,4.67
2017-10-31T00:39:36.670Z,5.70
2017-10-31T00:42:06.489Z,5.50
2017-10-31T00:44:35.360Z,6.30
2017-10-31T00:47:04.203Z,7.20
2017-10-31T00:49:33.074Z,6.73
2017-10-31T00:52:01.934Z,6.47
2017-10-31T00:54:30.792Z,7.10
2017-10-31T00:56:59.643Z,6.40
2017-10-31T00:59:28.702Z,7.00
2017-10-31T01:01:57.573Z,6.00
2017-10-31T01:04:26.435Z,5.97
2017-10-31T01:06:55.325Z,6.57
2017-10-31T01:09:24.210Z,6.50
2017-10-31T01:11:53.110Z,6.20
2017-10-31T01:14:21.974Z,5.07
2017-10-31T01:16:50.842Z,5.80
2017-10-31T01:19:19.702Z,5.83
2017-10-31T01:21:48.612Z,5.70
2017-10-31T01:24:17.459Z,5.10
2017-10-31T01:26:46.312Z,6.90
2017-10-31T01:29:15.175Z,5.90
2017-10-31T01:31:44.047Z,5.53
2017-10-31T01:34:12.919Z,6.20
2017-10-31T01:36:41.770Z,5.97
2017-10-31T01:39:10.631Z,5.43
2017-10-31T01:41:39.502Z,5.83
2017-10-31T01:44:08.403Z,7.37
2017-10-31T01:46:37.299Z,5.70
2017-10-31T01:49:06.181Z,5.87
2017-10-31T01:51:35.062Z,5.47
2017-10-31T01:54:03.926Z,5.80
2017-10-31T01:56:32.799Z,5.30
2017-10-31T01:59:01.652Z,6.60
2017-10-31T02:01:30.526Z,5.93
2017-10-31T02:03:59.382Z,5.80
2017-10-31T02:06:28.271Z,5.60
2017-10-31T02:08:57.123Z,6.00
2017-10-31T02:11:25.992Z,6.87
2017-10-31T02:13:54.883Z,7.00
2017-10-31T02:16:23.742Z,5.63
2017-10-31T02:18:52.606Z,6.07
2017-10-31T02:21:21.467Z,5.73
2017-10-31T02:23:50.335Z,4.97
2017-10-31T02:26:19.188Z,5.60
2017-10-31T02:28:48.088Z,5.53
2017-10-31T02:31:16.936Z,4.80
2017-10-31T02:33:45.804Z,5.50
2017-10-31T02:36:14.670Z,5.40
2017-10-31T02:38:49.278Z,5.87
2017-10-31T02:41:18.165Z,5.40
2017-10-31T02:43:47.052Z,5.23
2017-10-31T02:46:15.923Z,6.00
2017-10-31T02:48:44.797Z,5.60
2017-10-31T02:51:13.824Z,7.00
2017-10-31T02:53:42.694Z,5.53
2017-10-31T02:56:11.564Z,5.10
2017-10-31T02:58:40.450Z,6.13
2017-10-31T03:01:09.302Z,5.83
2017-10-31T03:03:38.183Z,5.30
2017-10-31T03:06:07.059Z,5.60
2017-10-31T03:08:35.947Z,4.67
2017-10-31T03:11:04.799Z,6.00
2017-10-31T03:13:33.714Z,5.60
2017-10-31T03:16:02.584Z,5.30
2017-10-31T03:18:31.430Z,5.80
2017-10-31T03:21:00.296Z,5.00
2017-10-31T03:23:29.162Z,5.73
2017-10-31T03:25:58.050Z,5.70
2017-10-31T03:28:26.927Z,5.57
2017-10-31T03:30:55.828Z,6.67
2017-10-31T03:33:24.706Z,6.27
2017-10-31T03:35:53.592Z,5.90
2017-10-31T03:40:57.983Z,6.60
2017-10-31T03:43:26.843Z,4.77
2017-10-31T03:45:55.726Z,5.70
2017-10-31T03:48:24.621Z,5.63
2017-10-31T03:50:53.471Z,6.03
2017-10-31T03:53:22.344Z,5.10
2017-10-31T03:55:51.191Z,5.70
2017-10-31T03:58:20.055Z,5.67
2017-10-31T04:00:48.910Z,6.53
2017-10-31T04:03:17.794Z,6.50
2017-10-31T04:05:46.705Z,6.47
2017-10-31T04:08:15.576Z,5.43
2017-10-31T04:10:44.447Z,5.70
2017-10-31T04:13:13.289Z,6.43
2017-10-31T04:15:42.199Z,6.20
2017-10-31T04:18:11.075Z,7.60
2017-10-31T04:20:39.947Z,5.90
2017-10-31T04:23:08.847Z,5.93
2017-10-31T04:25:37.739Z,5.73
2017-10-31T04:28:06.609Z,7.60
2017-10-31T04:30:35.483Z,6.27
2017-10-31T04:33:04.348Z,6.43
2017-10-31T04:35:33.198Z,6.53
2017-10-31T04:38:02.079Z,6.03
2017-10-31T04:40:30.930Z,5.70
2017-10-31T04:42:59.807Z,6.33
2017-10-31T04:45:28.664Z,8.43
2017-10-31T04:47:57.550Z,5.63
2017-10-31T04:50:26.423Z,6.07
2017-10-31T04:52:55.318Z,6.53
2017-10-31T04:55:24.209Z,6.10
2017-10-31T04:57:53.086Z,5.57
2017-10-31T05:00:21.981Z,6.50
2017-10-31T05:02:50.825Z,5.50
2017-10-31T05:05:19.694Z,6.00
2017-10-31T05:07:48.545Z,5.97
2017-10-31T05:10:17.558Z,5.80
2017-10-31T05:12:46.412Z,4.93
2017-10-31T05:15:15.263Z,6.17
2017-10-31T05:17:44.131Z,5.37
2017-10-31T05:20:12.981Z,5.93
2017-10-31T05:22:41.860Z,5.90
2017-10-31T05:25:10.710Z,5.47
2017-10-31T05:27:39.583Z,5.20
2017-10-31T05:30:08.436Z,6.40
2017-10-31T05:32:37.330Z,5.47
2017-10-31T05:35:06.182Z,5.60
2017-10-31T05:37:35.046Z,5.33
2017-10-31T05:40:03.927Z,5.70
2017-10-31T05:42:32.794Z,4.80
2017-10-31T05:45:01.674Z,4.93
2017-10-31T05:47:30.518Z,5.53
2017-10-31T05:49:59.391Z,5.63
2017-10-31T05:52:28.292Z,5.60
2017-10-31T05:54:57.198Z,5.30
2017-10-31T05:57:26.148Z,5.17
2017-10-31T05:59:55.008Z,4.70
2017-10-31T06:02:23.890Z,4.60
2017-10-31T06:04:52.743Z,5.20
2017-10-31T06:07:21.639Z,4.50
2017-10-31T06:09:50.489Z,4.60
2017-10-31T06:12:19.368Z,4.63
2017-10-31T06:14:48.226Z,5.20
2017-10-31T06:17:17.120Z,5.70
2017-10-31T06:19:45.966Z,4.43
2017-10-31T06:22:20.785Z,4.27
2017-10-31T06:24:55.409Z,4.40
2017-10-31T06:27:30.326Z,5.10
2017-10-31T06:30:04.997Z,5.10
2017-10-31T06:32:33.886Z,5.27
2017-10-31T06:35:02.753Z,5.80
2017-10-31T06:37:31.602Z,4.10
2017-10-31T06:40:00.470Z,4.57
2017-10-31T06:42:29.322Z,4.67
2017-10-31T06:44:58.190Z,4.33
2017-10-31T06:47:27.055Z,5.73
2017-10-31T06:49:55.934Z,4.40
2017-10-31T06:52:24.782Z,4.97
2017-10-31T06:54:53.883Z,5.20
2017-10-31T06:57:22.729Z,5.30
2017-10-31T06:59:51.598Z,4.50
2017-10-31T07:02:20.472Z,5.93
2017-10-31T07:04:49.339Z,5.10
2017-10-31T07:07:18.202Z,5.00
2017-10-31T07:09:47.093Z,4.73
2017-10-31T07:12:16.343Z,4.77
2017-10-31T07:14:45.191Z,5.20
2017-10-31T07:17:14.105Z,4.67
2017-10-31T07:19:42.969Z,5.00
2017-10-31T07:22:11.827Z,4.87
2017-10-31T07:24:40.696Z,5.07
2017-10-31T07:27:09.555Z,4.87
2017-10-31T07:29:38.435Z,4.93
2017-10-31T07:32:07.286Z,5.80
2017-10-31T07:34:36.154Z,5.30
2017-10-31T07:37:05.026Z,4.80
2017-10-31T07:39:33.928Z,5.00
2017-10-31T07:42:02.782Z,5.83
2017-10-31T07:44:31.633Z,5.47
2017-10-31T07:47:00.496Z,5.50
2017-10-31T07:49:29.346Z,5.50
2017-10-31T07:51:58.214Z,5.03
2017-10-31T07:54:27.086Z,5.40
2017-10-31T07:56:56.074Z,5.00
2017-10-31T07:59:24.915Z,5.33
2017-10-31T08:01:53.801Z,5.30
2017-10-31T08:04:22.657Z,5.03
2017-10-31T08:06:51.535Z,5.13
2017-10-31T08:09:20.435Z,5.87
2017-10-31T08:11:49.322Z,5.40
2017-10-31T08:14:18.187Z,5.10
2017-10-31T08:16:47.034Z,4.60
2017-10-31T08:19:15.905Z,4.93
2017-10-31T08:21:44.868Z,6.13
2017-10-31T08:24:13.752Z,5.30
2017-10-31T08:26:42.594Z,5.67
2017-10-31T08:29:11.451Z,6.30
2017-10-31T08:31:40.328Z,6.63
2017-10-31T08:34:09.186Z,7.30
2017-10-31T08:36:38.057Z,7.47
2017-10-31T08:39:06.942Z,7.03
2017-10-31T08:41:35.820Z,6.80
2017-10-31T08:44:04.672Z,7.20
2017-10-31T08:46:33.536Z,9.10
2017-10-31T08:49:02.383Z,7.87
2017-10-31T08:51:31.407Z,8.50
2017-10-31T08:54:00.276Z,8.60
2017-10-31T08:56:29.127Z,8.10
2017-10-31T08:58:57.992Z,8.43
2017-10-31T09:01:26.831Z,8.57
2017-10-31T09:03:55.723Z,7.47
2017-10-31T09:06:24.574Z,7.80
2017-10-31T09:08:53.440Z,7.57
2017-10-31T09:11:22.300Z,8.17
2017-10-31T09:13:51.310Z,7.97
2017-10-31T09:16:20.155Z,8.83
2017-10-31T09:18:49.014Z,8.70
2017-10-31T09:21:17.916Z,9.00
2017-10-31T09:23:46.880Z,7.97
2017-10-31T09:26:15.777Z,7.37
2017-10-31T09:28:44.671Z,9.27
2017-10-31T09:31:13.548Z,10.67
2017-10-31T09:33:42.410Z,9.03
2017-10-31T09:36:11.290Z,9.03
2017-10-31T09:38:40.168Z,7.37
2017-10-31T09:41:09.047Z,6.23
2017-10-31T09:43:37.910Z,6.10
2017-10-31T09:46:06.783Z,8.03
2017-10-31T09:48:35.639Z,7.43
2017-10-31T09:51:04.490Z,7.33
2017-10-31T09:53:33.351Z,6.70
2017-10-31T09:56:02.223Z,8.17
2017-10-31T09:58:31.090Z,8.33
2017-10-31T10:00:59.934Z,7.67
2017-10-31T10:03:28.829Z,7.00
2017-10-31T10:05:57.669Z,7.00
2017-10-31T10:08:26.567Z,6.60
2017-10-31T10:10:55.426Z,6.00
2017-10-31T10:13:24.280Z,6.67
2017-10-31T10:15:53.179Z,6.27
2017-10-31T10:18:22.037Z,7.30
2017-10-31T10:20:50.926Z,7.00
2017-10-31T10:23:19.777Z,7.23
2017-10-31T10:25:48.646Z,6.27
2017-10-31T10:28:17.489Z,6.33
2017-10-31T10:30:46.364Z,6.20
2017-10-31T10:33:15.242Z,6.03
2017-10-31T10:35:44.118Z,5.33
2017-10-31T10:38:12.975Z,5.00
2017-10-31T10:40:41.853Z,5.47
2017-10-31T10:43:10.822Z,5.17
2017-10-31T10:45:39.670Z,5.70
2017-10-31T10:48:08.537Z,5.43
2017-10-31T10:50:37.396Z,5.63
2017-10-31T10:53:06.261Z,5.87
2017-10-31T10:55:35.115Z,5.43
2017-10-31T10:58:04.022Z,6.50
2017-10-31T11:00:38.752Z,5.77
2017-10-31T11:03:07.660Z,5.30
2017-10-31T11:05:36.559Z,5.03
2017-10-31T11:08:05.419Z,5.43
2017-10-31T11:10:34.296Z,4.43
2017-10-31T11:13:03.148Z,4.80
2017-10-31T11:15:32.017Z,7.10
2017-10-31T11:18:00.887Z,9.03
2017-10-31T11:20:29.759Z,7.97
2017-10-31T11:22:58.620Z,6.13
2017-10-31T11:25:27.509Z,4.77
2017-10-31T11:27:56.367Z,5.30
2017-10-31T11:30:25.228Z,4.70
2017-10-31T11:32:54.092Z,2.90
2017-10-31T11:35:23.023Z,3.40
2017-10-31T11:37:51.892Z,4.40
2017-10-31T11:40:20.743Z,6.33
2017-10-31T11:42:49.618Z,6.33
2017-10-31T11:45:18.470Z,5.40
2017-10-31T11:47:47.319Z,4.27
2017-10-31T11:50:16.178Z,3.93
2017-10-31T11:52:45.059Z,4.13
2017-10-31T11:55:13.943Z,4.63
2017-10-31T11:57:42.805Z,4.00
2017-10-31T12:00:11.680Z,3.60
2017-10-31T12:02:40.627Z,3.63
2017-10-31T12:05:09.558Z,3.30
2017-10-31T12:07:38.433Z,3.57
2017-10-31T12:10:07.291Z,3.80
2017-10-31T12:12:36.160Z,3.93
2017-10-31T12:15:05.019Z,3.90
2017-10-31T12:17:33.898Z,4.07
2017-10-31T12:20:02.795Z,3.90
2017-10-31T12:22:32.273Z,3.93
2017-10-31T12:25:01.171Z,3.73
2017-10-31T12:27:30.236Z,5.07
2017-10-31T12:29:59.081Z,4.10
2017-10-31T12:32:27.942Z,5.00
2017-10-31T12:34:56.811Z,8.73
2017-10-31T12:37:25.656Z,5.90
2017-10-31T12:39:54.523Z,4.60
2017-10-31T12:42:23.380Z,4.20
2017-10-31T12:44:52.240Z,4.10
2017-10-31T12:47:21.096Z,4.20
2017-10-31T12:49:50.263Z,4.70
2017-10-31T12:52:19.124Z,5.03
2017-10-31T12:54:47.974Z,4.87
2017-10-31T12:57:16.874Z,4.80
2017-10-31T12:59:45.762Z,5.30
2017-10-31T13:02:14.628Z,4.90
2017-10-31T13:04:43.491Z,5.27
2017-10-31T13:07:12.391Z,5.77
2017-10-31T13:09:41.274Z,5.07
2017-10-31T13:12:10.144Z,6.27
2017-10-31T13:14:39.015Z,5.70
2017-10-31T13:17:07.863Z,4.67
2017-10-31T13:19:37.428Z,6.37
2017-10-31T13:22:06.279Z,5.50
2017-10-31T13:24:35.155Z,6.30
2017-10-31T13:27:04.150Z,6.07
2017-10-31T13:29:33.756Z,5.90
2017-10-31T13:32:03.111Z,5.83
2017-10-31T13:34:32.651Z,9.10
2017-10-31T13:37:02.158Z,14.77
2017-10-31T13:39:31.721Z,6.73
2017-10-31T13:42:01.844Z,6.50
2017-10-31T13:44:31.361Z,5.53
2017-10-31T13:47:00.250Z,5.50
2017-10-31T13:49:30.010Z,6.03
2017-10-31T13:51:59.488Z,6.33
2017-10-31T13:54:28.357Z,5.50
2017-10-31T13:56:57.202Z,6.87
2017-10-31T13:59:26.079Z,5.40
2017-10-31T14:01:55.630Z,6.20
2017-10-31T14:04:25.039Z,5.30
2017-10-31T14:06:54.432Z,5.50
2017-10-31T14:09:23.938Z,5.60
2017-10-31T14:11:53.446Z,5.13
2017-10-31T14:14:22.482Z,4.63
2017-10-31T14:16:51.325Z,4.60
2017-10-31T14:19:20.207Z,6.00
2017-10-31T14:21:49.834Z,5.27
2017-10-31T14:24:18.705Z,5.17
2017-10-31T14:26:47.571Z,4.13
2017-10-31T14:29:16.431Z,4.90
2017-10-31T14:31:45.303Z,5.70
2017-10-31T14:34:14.164Z,5.40
2017-10-31T14:36:43.082Z,3.63
2017-10-31T14:39:11.946Z,5.40
2017-10-31T14:41:40.826Z,5.10
2017-10-31T14:44:09.697Z,5.17
2017-10-31T14:46:38.556Z,5.37
2017-10-31T14:49:07.426Z,4.80
2017-10-31T14:51:36.288Z,4.60
2017-10-31T14:54:05.172Z,4.67
2017-10-31T14:56:34.026Z,4.00
2017-10-31T14:59:03.113Z,4.80
2017-10-31T15:01:31.983Z,4.70
2017-10-31T15:04:00.844Z,3.73
2017-10-31T15:06:29.733Z,4.50
2017-10-31T15:08:58.581Z,4.50
2017-10-31T15:11:27.455Z,4.40
2017-10-31T15:13:56.309Z,3.67
2017-10-31T15:16:25.179Z,4.33
2017-10-31T15:18:54.043Z,3.93
2017-10-31T15:21:22.979Z,3.70
2017-10-31T15:23:51.847Z,4.33
2017-10-31T15:26:20.699Z,4.70
2017-10-31T15:28:49.566Z,5.80
2017-10-31T15:31:18.427Z,5.40
2017-10-31T15:33:47.290Z,8.20
2017-10-31T15:36:16.167Z,4.63
2017-10-31T15:38:45.230Z,4.77
2017-10-31T15:41:14.081Z,5.10
2017-10-31T15:43:42.989Z,4.53
2017-10-31T15:46:11.880Z,4.73
2017-10-31T15:48:40.743Z,4.43
2017-10-31T15:51:09.632Z,5.20
2017-10-31T15:53:38.496Z,3.43
2017-10-31T15:56:07.373Z,4.00
2017-10-31T15:58:36.245Z,4.67
2017-10-31T16:01:05.147Z,5.00
2017-10-31T16:03:34.022Z,4.40
2017-10-31T16:06:02.930Z,4.60
2017-10-31T16:08:31.790Z,4.50
2017-10-31T16:11:00.689Z,4.67
2017-10-31T16:13:29.554Z,5.13
2017-10-31T16:15:58.401Z,5.53
2017-10-31T16:18:27.290Z,6.93
2017-10-31T16:20:56.165Z,6.47
2017-10-31T16:23:25.037Z,4.80
2017-10-31T16:25:53.915Z,4.93
2017-10-31T16:28:22.801Z,5.57
2017-10-31T16:30:51.677Z,5.17
2017-10-31T16:33:20.674Z,4.80
2017-10-31T16:35:49.536Z,4.70
2017-10-31T16:38:18.410Z,5.90
2017-10-31T16:40:47.284Z,5.73
2017-10-31T16:43:16.154Z,5.40
2017-10-31T16:45:45.087Z,5.82
2017-10-31T16:48:13.937Z,6.00
2017-10-31T16:50:42.811Z,6.07
2017-10-31T16:53:11.804Z,6.25
2017-10-31T16:55:40.697Z,5.50
2017-10-31T16:58:09.562Z,6.37
2017-10-31T17:00:38.542Z,7.00
2017-10-31T17:03:07.467Z,6.00
2017-10-31T17:05:36.569Z,6.17
2017-10-31T17:08:05.462Z,6.80
2017-10-31T17:10:34.339Z,6.30
2017-10-31T17:13:03.223Z,7.50
2017-10-31T17:15:32.080Z,8.17
2017-10-31T17:18:01.207Z,7.80
2017-10-31T17:20:30.089Z,8.10
2017-10-31T17:22:58.947Z,9.53
2017-10-31T17:25:27.824Z,8.50
2017-10-31T17:27:56.704Z,8.27
2017-10-31T17:30:25.595Z,7.30
2017-10-31T17:32:54.540Z,6.37
2017-10-31T17:35:23.451Z,6.53
2017-10-31T17:37:52.319Z,6.37
2017-10-31T17:40:21.214Z,7.65
2017-10-31T17:42:50.084Z,6.50
2017-10-31T17:45:19.146Z,6.93
2017-10-31T17:47:48.037Z,7.13
2017-10-31T17:50:16.898Z,5.87
2017-10-31T17:52:45.757Z,6.10
2017-10-31T17:55:14.613Z,6.20
2017-10-31T17:57:43.502Z,6.50
2017-10-31T18:00:12.391Z,7.93
2017-10-31T18:02:41.280Z,8.47
2017-10-31T18:05:10.174Z,8.00
2017-10-31T18:07:39.128Z,7.83
2017-10-31T18:10:07.987Z,8.57
2017-10-31T18:12:36.839Z,7.73
2017-10-31T18:15:05.719Z,9.13
2017-10-31T18:17:34.571Z,10.80
2017-10-31T18:20:03.453Z,9.97
2017-10-31T18:22:32.342Z,9.50
2017-10-31T18:25:01.286Z,9.27
2017-10-31T18:27:30.139Z,10.90
2017-10-31T18:29:59.031Z,10.07
2017-10-31T18:32:27.910Z,10.10
2017-10-31T18:34:56.810Z,9.13
2017-10-31T18:37:25.680Z,9.80
2017-10-31T18:39:54.652Z,9.40
2017-10-31T18:42:23.555Z,11.33
2017-10-31T18:44:52.436Z,12.80
2017-10-31T18:47:21.296Z,10.40
2017-10-31T18:49:50.146Z,10.30
2017-10-31T18:52:19.462Z,9.50
2017-10-31T18:54:48.322Z,9.80
2017-10-31T18:57:17.188Z,12.33
2017-10-31T18:59:46.041Z,8.33
2017-10-31T19:02:14.948Z,12.00
2017-10-31T19:04:43.816Z,9.23
2017-10-31T19:07:12.695Z,9.40
2017-10-31T19:09:41.668Z,10.27
2017-10-31T19:12:10.545Z,11.67
2017-10-31T19:14:39.432Z,10.50
2017-10-31T19:17:08.318Z,11.20
2017-10-31T19:19:37.215Z,10.30
2017-10-31T19:22:06.084Z,10.17
2017-10-31T19:24:35.202Z,11.13
2017-10-31T19:27:04.077Z,12.70
2017-10-31T19:29:32.978Z,11.23
2017-10-31T19:32:01.852Z,9.50
2017-10-31T19:34:30.714Z,9.20
2017-10-31T19:36:59.582Z,10.33
2017-10-31T19:39:28.447Z,9.70
2017-10-31T19:41:57.327Z,12.50
2017-10-31T19:44:26.187Z,11.33
2017-10-31T19:46:55.102Z,9.60
2017-10-31T19:49:23.958Z,10.60
2017-10-31T19:51:52.833Z,10.57
2017-10-31T19:54:21.716Z,10.80
2017-10-31T19:56:50.598Z,14.97
2017-10-31T19:59:19.486Z,11.20
2017-10-31T20:01:48.415Z,10.97
2017-10-31T20:04:17.401Z,11.07
2017-10-31T20:06:46.397Z,12.60
2017-10-31T20:09:15.314Z,11.87
2017-10-31T20:11:44.251Z,10.77
2017-10-31T20:14:13.368Z,11.50
2017-10-31T20:16:43.386Z,11.93
2017-10-31T20:19:12.292Z,11.97
2017-10-31T20:21:41.273Z,11.70
2017-10-31T20:24:10.179Z,13.30
2017-10-31T20:26:39.275Z,11.43
2017-10-31T20:29:08.170Z,11.57
2017-10-31T20:31:37.173Z,16.60
2017-10-31T20:34:06.130Z,15.77
2017-10-31T20:36:35.014Z,12.67
2017-10-31T20:39:03.931Z,12.80
2017-10-31T20:41:32.880Z,12.90
2017-10-31T20:44:01.835Z,10.90
2017-10-31T20:46:30.809Z,13.10
2017-10-31T20:48:59.731Z,10.50
2017-10-31T20:51:28.644Z,12.05
2017-10-31T20:53:57.911Z,11.43
2017-10-31T20:56:26.781Z,10.80
2017-10-31T20:58:55.682Z,11.25
2017-10-31T21:01:24.621Z,11.10
2017-10-31T21:03:53.620Z,10.60
2017-10-31T21:06:22.583Z,9.70
2017-10-31T21:08:51.437Z,10.00
2017-10-31T21:11:20.444Z,12.30
2017-10-31T21:13:49.669Z,15.40
2017-10-31T21:16:18.707Z,11.03
2017-10-31T21:18:47.794Z,9.73
2017-10-31T21:21:16.658Z,11.70
2017-10-31T21:23:45.555Z,12.98
2017-10-31T21:26:14.539Z,13.33
2017-10-31T21:28:43.478Z,11.10
2017-10-31T21:31:12.516Z,9.60
2017-10-31T21:33:41.410Z,9.75
2017-10-31T21:36:10.398Z,10.40
2017-10-31T21:38:39.317Z,9.83
2017-10-31T21:41:08.394Z,11.40
2017-10-31T21:43:37.255Z,10.47
2017-10-31T21:46:06.235Z,10.23
2017-10-31T21:48:35.130Z,11.27
2017-10-31T21:51:04.006Z,10.73
2017-10-31T21:53:32.864Z,10.20
2017-10-31T21:56:01.731Z,10.40
2017-10-31T21:58:30.646Z,10.33
2017-10-31T22:00:59.699Z,9.50
2017-10-31T22:03:28.642Z,10.77
2017-10-31T22:05:57.558Z,10.87
2017-10-31T22:08:26.526Z,10.03
2017-10-31T22:10:55.444Z,10.20
2017-10-31T22:13:24.658Z,9.97
2017-10-31T22:15:53.539Z,9.17
2017-10-31T22:18:22.431Z,11.90
2017-10-31T22:20:51.319Z,12.07
2017-10-31T22:23:20.171Z,10.30
2017-10-31T22:25:49.051Z,11.00
2017-10-31T22:28:17.898Z,10.80
2017-10-31T22:30:46.774Z,10.70
2017-10-31T22:33:15.629Z,10.27
2017-10-31T22:35:44.662Z,10.40
2017-10-31T22:38:13.526Z,10.23
2017-10-31T22:40:42.379Z,9.73
2017-10-31T22:43:11.258Z,9.83
2017-10-31T22:45:40.136Z,9.40
2017-10-31T22:48:09.035Z,8.57
2017-10-31T22:50:37.904Z,10.23
2017-10-31T22:53:06.916Z,9.20
2017-10-31T22:55:35.783Z,8.30
2017-10-31T22:58:04.634Z,8.73
2017-10-31T23:00:33.513Z,9.70
2017-10-31T23:03:02.374Z,9.40
2017-10-31T23:05:31.238Z,9.67
2017-10-31T23:08:00.109Z,17.03
2017-10-31T23:10:29.007Z,16.67
2017-10-31T23:12:57.924Z,11.67
2017-10-31T23:15:26.778Z,9.30
2017-10-31T23:17:55.683Z,9.27
2017-10-31T23:20:24.533Z,9.43
2017-10-31T23:22:53.402Z,9.50
2017-10-31T23:25:22.270Z,9.43
2017-10-31T23:27:51.155Z,10.83
2017-10-31T23:30:20.010Z,9.77
2017-10-31T23:32:48.939Z,9.77
2017-10-31T23:35:17.806Z,9.63
2017-10-31T23:37:46.672Z,8.77
2017-10-31T23:40:15.534Z,9.57
2017-10-31T23:42:44.391Z,9.37
2017-10-31T23:45:13.304Z,9.00
2017-10-31T23:47:42.161Z,7.30
2017-10-31T23:50:11.074Z,8.13
2017-10-31T23:52:39.946Z,7.90
2017-10-31T23:55:08.904Z,7.67
2017-10-31T23:57:37.778Z,8.90
